Home   Weather   Uzbekistan   Tashkent   Past weeks
Flag for Uzbekistan

Past Weather in Tashkent, Uzbekistan — Yesterday and Last 2 Weeks

Currently: 81 °F. Passing clouds. (Weather station: Tashkent, Uzbekistan). See more current weather

Past Weather in Tashkent — Graph

°F

Tashkent Temperature Yesterday

Maximum temperature yesterday: 81 °F (at 12:00 am)
Minimum temperature yesterday: 66 °F (at 11:30 pm)
Average temperature yesterday: 76 °F

High & Low Weather Summary for the Past Weeks

 TemperatureHumidityPressure
High108 °F (Jun 29, 2:30 pm)78% (Jun 22, 3:00 am)29.92 "Hg (Jun 22, 3:00 am)
Low64 °F (Jul 6, 2:30 am)10% (Jul 2, 5:30 pm)29.45 "Hg (Jul 4, 1:30 am)
Average87 °F32%29.70 "Hg
* Reported Jun 21 9:00 pm — Jul 6 9:00 pm, Tashkent. Weather by CustomWeather, © 2022

Note: Actual official high and low records may vary slightly from our data, if they occured in-between our weather recording intervals... More about our weather records

Tashkent Weather History for the Previous 24 Hours

Scroll right to see more
 ConditionsComfort  
Time TempWeatherWind HumidityBarometerVisibility
9:00 pm
Wed, Jul 6
81 °FPassing clouds.5 mph34%29.80 "HgN/A
8:30 pm82 °FPassing clouds.5 mph32%29.80 "HgN/A
7:30 pm86 °FSunny.7 mph27%29.80 "Hg10 mi
7:00 pm86 °FSunny.7 mph27%29.77 "Hg10 mi
6:30 pm88 °FSunny.9 mph25%29.77 "Hg10 mi
6:00 pm88 °FSunny.12 mph25%29.77 "Hg10 mi
5:00 pm90 °FSunny.12 mph22%29.77 "Hg10 mi
4:00 pm90 °FPassing clouds.5 mph21%29.77 "HgN/A
3:30 pm90 °FPassing clouds.9 mph22%29.80 "HgN/A
3:00 pm90 °FPassing clouds.7 mph21%29.80 "HgN/A
2:00 pm90 °FSunny.7 mph21%29.80 "Hg10 mi
1:30 pm90 °FPassing clouds.9 mph21%29.80 "HgN/A
1:00 pm90 °FPassing clouds.7 mph21%29.80 "HgN/A
12:30 pm90 °FSunny.5 mph20%29.80 "Hg10 mi
12:00 pm88 °FSunny.7 mph21%29.80 "Hg10 mi
11:30 am86 °FPassing clouds.7 mph22%29.83 "HgN/A
11:00 am86 °FSunny.5 mph20%29.83 "Hg10 mi
10:00 am84 °FSunny.5 mph25%29.83 "Hg10 mi
9:30 am82 °FSunny.2 mph26%29.83 "Hg10 mi
9:00 am81 °FPassing clouds.5 mph28%29.83 "HgN/A
8:30 am77 °FPassing clouds.7 mph32%29.86 "HgN/A
8:00 am75 °FPassing clouds.7 mph34%29.86 "HgN/A
7:30 am73 °FSunny.7 mph36%29.86 "Hg10 mi
7:00 am73 °FSunny.5 mph38%29.86 "Hg10 mi
6:30 am70 °FSunny.5 mph43%29.86 "Hg10 mi
6:00 am70 °FSunny.7 mph43%29.83 "Hg10 mi
4:30 am68 °FClear.5 mph49%29.83 "Hg10 mi
4:00 am64 °FClear.2 mph60%29.83 "Hg10 mi
3:30 am64 °FPassing clouds.5 mph56%29.83 "HgN/A
3:00 am66 °FPassing clouds.5 mph56%29.83 "HgN/A
2:30 am64 °FClear.7 mph60%29.83 "Hg10 mi
2:00 am70 °FClear.2 mph50%29.83 "Hg10 mi
1:00 am68 °FClear.5 mph53%29.83 "Hg10 mi
12:30 am68 °FClear.5 mph53%29.86 "Hg10 mi
12:00 am66 °FClear.7 mph56%29.86 "Hg10 mi
11:30 pm
Tue, Jul 5
66 °FClear.9 mph56%29.86 "Hg10 mi
11:00 pm68 °FClear.7 mph49%29.86 "Hg10 mi
10:00 pm72 °FClear.2 mph44%29.86 "Hg10 mi
Weather by CustomWeather, © 2022

See weather overview